Time;durP1;ratioP1;P1;durP2;ratioP2;P2;SDS_P1;SDS_P2;PMS_P1;PMS_P2;Temp;Humidity;BMP_temperature;BMP_pressure;BME280_temperature;BME280_humidity;BME280_pressure;Samples;Min_cycle;Max_cycle;Signal;HPM_P1;HPM_P2
2023/03/05 00:01:10;;;;;;;23.02;16.95;;;4.10;99.90;;;;;;6057742;23;20211;-66
2023/03/05 00:03:38;;;;;;;20.85;16.83;;;4.20;99.90;;;;;;6042931;23;20222;-66
2023/03/05 00:06:06;;;;;;;26.58;16.90;;;4.10;99.90;;;;;;6059130;23;20196;-66
2023/03/05 00:08:33;;;;;;;21.55;15.93;;;4.20;99.90;;;;;;6059145;23;20199;-66
2023/03/05 00:11:03;;;;;;;21.17;16.85;;;4.20;99.90;;;;;;6058495;23;20263;-67
2023/03/05 00:13:30;;;;;;;20.25;15.05;;;4.20;99.90;;;;;;6058150;23;20212;-66
2023/03/05 00:15:58;;;;;;;21.50;16.27;;;4.20;99.90;;;;;;6051239;23;20219;-66
2023/03/05 00:18:25;;;;;;;27.95;17.52;;;4.20;99.90;;;;;;6057382;23;20188;-66
2023/03/05 00:20:52;;;;;;;23.95;16.50;;;4.30;99.90;;;;;;6059544;23;20641;-66
2023/03/05 00:23:19;;;;;;;20.73;15.38;;;4.20;99.90;;;;;;6054067;23;20635;-66
2023/03/05 00:25:47;;;;;;;22.05;15.35;;;4.20;99.90;;;;;;6057680;23;20227;-66
2023/03/05 00:28:14;;;;;;;22.95;15.07;;;4.20;99.90;;;;;;6059018;23;20189;-66
2023/03/05 00:30:41;;;;;;;23.80;16.92;;;4.20;99.90;;;;;;6055971;23;20220;-66
2023/03/05 00:33:11;;;;;;;20.70;15.82;;;4.30;99.90;;;;;;6057107;23;20593;-65
2023/03/05 00:35:41;;;;;;;24.55;15.15;;;4.30;99.90;;;;;;6056257;23;20561;-67
2023/03/05 00:38:09;;;;;;;26.38;16.23;;;4.30;99.90;;;;;;6055747;23;20231;-67
2023/03/05 00:40:37;;;;;;;23.10;14.27;;;4.30;99.90;;;;;;6055561;23;20200;-66
2023/03/05 00:43:05;;;;;;;23.08;14.88;;;4.30;99.90;;;;;;6058344;23;20213;-66
2023/03/05 00:45:32;;;;;;;22.27;14.80;;;4.30;99.90;;;;;;6057398;23;20280;-66
2023/03/05 00:47:59;;;;;;;21.85;14.57;;;4.30;99.90;;;;;;6058524;23;20199;-67
2023/03/05 00:50:28;;;;;;;19.98;13.65;;;4.30;99.90;;;;;;6055142;23;20224;-66
2023/03/05 00:52:56;;;;;;;23.30;15.60;;;4.30;99.90;;;;;;6058147;23;20672;-67
2023/03/05 00:55:23;;;;;;;22.80;15.65;;;4.30;99.90;;;;;;6058551;23;20189;-66
2023/03/05 00:57:49;;;;;;;23.05;15.18;;;4.30;99.90;;;;;;6058924;23;20633;-66
2023/03/05 01:00:17;;;;;;;23.02;14.10;;;4.30;99.90;;;;;;6059558;23;20549;-66
2023/03/05 01:02:44;;;;;;;20.48;14.02;;;4.30;99.90;;;;;;6061322;23;20295;-66
2023/03/05 01:05:13;;;;;;;19.75;14.10;;;4.30;99.90;;;;;;6059660;23;20299;-65
2023/03/05 01:07:42;;;;;;;21.50;13.60;;;4.30;99.90;;;;;;6056352;23;20199;-66
2023/03/05 01:10:11;;;;;;;21.05;13.13;;;4.40;99.90;;;;;;6060602;23;20276;-66
2023/03/05 01:12:38;;;;;;;21.67;13.70;;;4.40;99.90;;;;;;6060510;23;20224;-66
2023/03/05 01:15:06;;;;;;;21.55;13.95;;;4.40;99.90;;;;;;6057937;23;20271;-66
2023/03/05 01:17:33;;;;;;;24.85;14.95;;;4.40;99.90;;;;;;6059340;23;20665;-66
2023/03/05 01:20:00;;;;;;;23.55;14.30;;;4.40;99.90;;;;;;6054693;23;20193;-66
2023/03/05 01:22:27;;;;;;;23.27;14.18;;;4.40;99.90;;;;;;6047060;23;20234;-65
2023/03/05 01:24:55;;;;;;;21.98;13.82;;;4.40;99.90;;;;;;6060453;23;20201;-66
2023/03/05 01:27:23;;;;;;;20.67;13.18;;;4.40;99.90;;;;;;6047368;23;20338;-65
2023/03/05 01:29:50;;;;;;;19.30;13.40;;;4.40;99.90;;;;;;6059433;23;20661;-66
2023/03/05 01:32:17;;;;;;;21.25;13.93;;;4.40;99.90;;;;;;6054040;23;20228;-66
2023/03/05 01:34:44;;;;;;;19.92;13.30;;;4.40;99.90;;;;;;6052103;23;20189;-66
2023/03/05 01:37:11;;;;;;;24.00;14.52;;;4.40;99.90;;;;;;6045649;23;20196;-66
2023/03/05 01:39:38;;;;;;;21.92;14.10;;;4.40;99.90;;;;;;6060401;23;20683;-66
2023/03/05 01:42:07;;;;;;;20.50;13.95;;;4.40;99.90;;;;;;6061091;23;20221;-67
2023/03/05 01:44:35;;;;;;;21.50;14.38;;;4.40;99.90;;;;;;6057162;23;20188;-66
2023/03/05 01:47:02;;;;;;;24.50;14.38;;;4.40;99.90;;;;;;6057496;23;20201;-66
2023/03/05 01:49:32;;;;;;;22.13;14.88;;;4.40;99.90;;;;;;6054067;23;20665;-66
2023/03/05 01:52:04;;;;;;;22.45;14.55;;;4.40;99.90;;;;;;6059790;23;20251;-66
2023/03/05 01:54:33;;;;;;;21.92;13.18;;;4.40;99.90;;;;;;6048993;23;20197;-66
2023/03/05 01:57:08;;;;;;;21.33;14.18;;;4.30;99.90;;;;;;6060008;23;20193;-66
2023/03/05 01:59:37;;;;;;;24.02;15.15;;;4.30;99.90;;;;;;6052874;23;20184;-66
2023/03/05 02:02:06;;;;;;;22.52;15.40;;;4.30;99.90;;;;;;6057441;23;20296;-66
2023/03/05 02:04:39;;;;;;;20.20;13.20;;;4.20;99.90;;;;;;6058545;23;20201;-66
2023/03/05 02:07:07;;;;;;;19.38;13.38;;;4.20;99.90;;;;;;6058062;23;20339;-67
2023/03/05 02:09:37;;;;;;;21.50;13.32;;;4.20;99.90;;;;;;6059365;23;20275;-66
2023/03/05 02:12:05;;;;;;;24.55;14.65;;;4.20;99.90;;;;;;6055537;23;20220;-67
2023/03/05 02:14:33;;;;;;;21.00;12.50;;;4.10;99.90;;;;;;6055625;23;20276;-66
2023/03/05 02:17:00;;;;;;;22.60;13.05;;;4.10;99.90;;;;;;6058381;23;20268;-66
2023/03/05 02:19:28;;;;;;;21.25;13.52;;;4.10;99.90;;;;;;6061584;23;20583;-66
2023/03/05 02:21:56;;;;;;;19.88;13.88;;;4.10;99.90;;;;;;6057653;23;20289;-66
2023/03/05 02:24:35;;;;;;;19.00;12.10;;;4.00;99.90;;;;;;6058597;23;20736;-66
2023/03/05 02:27:04;;;;;;;21.05;12.25;;;4.00;99.90;;;;;;6049386;23;20205;-66
2023/03/05 02:29:32;;;;;;;22.40;14.15;;;4.10;99.90;;;;;;6057218;23;20193;-66
2023/03/05 02:32:00;;;;;;;18.58;12.38;;;4.10;99.90;;;;;;6060432;23;20698;-66
2023/03/05 02:34:27;;;;;;;19.20;11.77;;;4.10;99.90;;;;;;6058571;23;20250;-66
2023/03/05 02:36:55;;;;;;;18.70;13.48;;;4.10;99.90;;;;;;6057098;23;20647;-66
2023/03/05 02:39:22;;;;;;;21.10;11.90;;;4.20;99.90;;;;;;6059761;23;20279;-65
2023/03/05 02:41:49;;;;;;;19.40;11.82;;;4.20;99.90;;;;;;6057465;23;20725;-66
2023/03/05 02:44:16;;;;;;;17.13;11.55;;;4.20;99.90;;;;;;6056978;23;20201;-67
2023/03/05 02:46:43;;;;;;;19.52;12.15;;;4.20;99.90;;;;;;6058705;23;20645;-67
2023/03/05 02:49:10;;;;;;;19.33;12.18;;;4.30;99.90;;;;;;6060452;23;20197;-66
2023/03/05 02:51:37;;;;;;;21.52;12.18;;;4.30;99.90;;;;;;6059979;23;20272;-66
2023/03/05 02:54:06;;;;;;;18.25;11.50;;;4.20;99.90;;;;;;6058507;23;20236;-65
2023/03/05 02:56:33;;;;;;;21.80;13.23;;;4.20;99.90;;;;;;6059143;23;20257;-65
2023/03/05 02:59:00;;;;;;;19.45;11.75;;;4.20;99.90;;;;;;6059276;23;20254;-66
2023/03/05 03:01:28;;;;;;;18.92;12.52;;;4.10;99.90;;;;;;6062667;23;20272;-66
2023/03/05 03:03:56;;;;;;;21.90;12.48;;;4.10;99.90;;;;;;6059632;23;20468;-66
2023/03/05 03:06:23;;;;;;;18.58;12.02;;;4.10;99.90;;;;;;6058579;23;20197;-66
2023/03/05 03:08:50;;;;;;;21.48;12.45;;;4.00;99.90;;;;;;6055471;23;20197;-66
2023/03/05 03:11:20;;;;;;;18.25;12.32;;;4.00;99.90;;;;;;6057064;23;20189;-66
2023/03/05 03:13:47;;;;;;;18.70;11.73;;;4.00;99.90;;;;;;6058058;23;20228;-66
2023/03/05 03:16:15;;;;;;;19.60;11.88;;;4.00;99.90;;;;;;6060166;23;20275;-66
2023/03/05 03:18:43;;;;;;;18.95;11.80;;;4.00;99.90;;;;;;6060455;23;20267;-66
2023/03/05 03:21:17;;;;;;;19.90;12.27;;;4.00;99.90;;;;;;6056840;23;20223;-66
2023/03/05 03:23:44;;;;;;;18.58;12.25;;;4.10;99.90;;;;;;6057650;23;20238;-66
2023/03/05 03:26:11;;;;;;;16.40;10.15;;;4.10;99.90;;;;;;6056935;23;20235;-66
2023/03/05 03:28:39;;;;;;;18.17;11.20;;;4.10;99.90;;;;;;6059860;23;20725;-66
2023/03/05 03:31:06;;;;;;;16.33;11.02;;;4.10;99.90;;;;;;6059528;23;20235;-66
2023/03/05 03:33:33;;;;;;;17.45;11.30;;;4.20;99.90;;;;;;6056313;23;20327;-65
2023/03/05 03:36:00;;;;;;;18.38;10.30;;;4.20;99.90;;;;;;6050919;23;20593;-65
2023/03/05 03:38:27;;;;;;;19.58;10.75;;;4.20;99.90;;;;;;6057767;23;20196;-66
2023/03/05 03:40:54;;;;;;;16.52;10.38;;;4.30;99.90;;;;;;6057801;23;20199;-66
2023/03/05 03:43:21;;;;;;;17.17;10.80;;;4.30;99.90;;;;;;6059341;23;20295;-66
2023/03/05 03:45:50;;;;;;;18.55;11.00;;;4.30;99.90;;;;;;6061258;23;20263;-66
2023/03/05 03:48:17;;;;;;;16.88;10.73;;;4.30;99.90;;;;;;6059741;23;20189;-66
2023/03/05 03:50:44;;;;;;;17.40;10.55;;;4.30;99.90;;;;;;6056655;23;20192;-67
2023/03/05 03:53:13;;;;;;;17.90;9.93;;;4.30;99.90;;;;;;6040309;23;20303;-66
2023/03/05 03:55:40;;;;;;;18.08;11.40;;;4.30;99.90;;;;;;6051997;23;20203;-66
2023/03/05 03:58:07;;;;;;;16.23;10.15;;;4.40;99.90;;;;;;6058633;23;20212;-66
2023/03/05 04:00:34;;;;;;;16.50;10.20;;;4.40;99.90;;;;;;6057478;23;20196;-65
2023/03/05 04:03:02;;;;;;;15.80;9.65;;;4.40;99.90;;;;;;6059167;23;20208;-66
2023/03/05 04:05:29;;;;;;;18.02;10.85;;;4.40;99.90;;;;;;6056907;23;20729;-66
2023/03/05 04:07:58;;;;;;;14.80;10.52;;;4.40;99.90;;;;;;6059225;23;20276;-66
2023/03/05 04:10:25;;;;;;;17.35;10.55;;;4.40;99.90;;;;;;6058412;23;20189;-66
2023/03/05 04:12:52;;;;;;;18.50;11.65;;;4.40;99.90;;;;;;6059022;23;20220;-67
2023/03/05 04:15:21;;;;;;;14.70;9.80;;;4.30;99.90;;;;;;6060178;23;20275;-66
2023/03/05 04:17:48;;;;;;;17.38;10.63;;;4.40;99.90;;;;;;6060045;23;20220;-66
2023/03/05 04:20:17;;;;;;;19.70;10.05;;;4.30;99.90;;;;;;6060093;23;20216;-66
2023/03/05 04:22:44;;;;;;;17.17;10.65;;;4.30;99.90;;;;;;6062101;23;20748;-66
2023/03/05 04:25:11;;;;;;;17.02;10.55;;;4.30;99.90;;;;;;6059335;23;20287;-67
2023/03/05 04:27:40;;;;;;;19.67;10.50;;;4.30;99.90;;;;;;6060480;23;20195;-66
2023/03/05 04:30:09;;;;;;;17.42;9.88;;;4.30;99.90;;;;;;6059334;23;20288;-66
2023/03/05 04:32:36;;;;;;;18.70;10.75;;;4.20;99.90;;;;;;6060043;23;20227;-66
2023/03/05 04:35:04;;;;;;;17.67;10.52;;;4.20;99.90;;;;;;6058203;23;20291;-66
2023/03/05 04:37:33;;;;;;;20.20;10.90;;;4.20;99.90;;;;;;6060182;23;20258;-66
2023/03/05 04:40:00;;;;;;;18.05;10.82;;;4.20;99.90;;;;;;6060267;23;20215;-66
2023/03/05 04:42:27;;;;;;;20.58;10.35;;;4.20;99.90;;;;;;6059790;23;20248;-66
2023/03/05 04:44:54;;;;;;;16.40;10.35;;;4.20;99.90;;;;;;6055337;23;20303;-66
2023/03/05 04:47:21;;;;;;;19.17;11.45;;;4.20;99.90;;;;;;6055898;23;20720;-66
2023/03/05 04:49:48;;;;;;;19.88;11.25;;;4.20;99.90;;;;;;6060210;23;20223;-67
2023/03/05 04:52:15;;;;;;;20.65;12.00;;;4.10;99.90;;;;;;6057593;23;20295;-67
2023/03/05 04:54:44;;;;;;;18.55;11.23;;;4.10;99.90;;;;;;6060052;23;20200;-66
2023/03/05 04:57:11;;;;;;;18.77;10.70;;;4.10;99.90;;;;;;6060537;23;20196;-66
2023/03/05 04:59:38;;;;;;;18.08;10.55;;;4.10;99.90;;;;;;6049715;23;20275;-66
2023/03/05 05:02:05;;;;;;;17.70;11.00;;;4.10;99.90;;;;;;6047568;23;20724;-66
2023/03/05 05:04:34;;;;;;;21.17;11.52;;;4.10;99.90;;;;;;6038428;23;20283;-66
2023/03/05 05:07:02;;;;;;;16.50;10.90;;;4.10;99.90;;;;;;6047270;23;20193;-65
2023/03/05 05:09:29;;;;;;;16.67;10.45;;;4.10;99.90;;;;;;6058965;23;20193;-66
2023/03/05 05:11:57;;;;;;;17.00;10.57;;;4.10;99.90;;;;;;6055290;23;20219;-66
2023/03/05 05:14:24;;;;;;;14.32;10.05;;;4.10;99.90;;;;;;6054935;23;20243;-65
2023/03/05 05:16:51;;;;;;;21.95;10.75;;;4.10;99.90;;;;;;6047980;23;20193;-66
2023/03/05 05:19:18;;;;;;;14.30;9.98;;;4.10;99.90;;;;;;6036838;23;20197;-67
2023/03/05 05:21:46;;;;;;;18.05;11.05;;;4.10;99.90;;;;;;6048014;23;21015;-66
2023/03/05 05:24:12;;;;;;;20.92;11.25;;;4.10;99.90;;;;;;6056440;23;20192;-66
2023/03/05 05:26:39;;;;;;;18.30;11.13;;;4.10;99.90;;;;;;6037476;23;20205;-66
2023/03/05 05:29:08;;;;;;;16.45;10.30;;;4.10;99.90;;;;;;6054305;23;20216;-67
2023/03/05 05:31:35;;;;;;;17.83;11.68;;;4.10;99.90;;;;;;6045564;23;20617;-66
2023/03/05 05:34:02;;;;;;;18.25;11.30;;;4.10;99.90;;;;;;6056403;23;20335;-66
2023/03/05 05:36:29;;;;;;;24.70;11.68;;;4.10;99.90;;;;;;6042471;23;20188;-66
2023/03/05 05:38:56;;;;;;;18.95;11.13;;;4.10;99.90;;;;;;6047311;23;20268;-66
2023/03/05 05:41:23;;;;;;;17.85;11.10;;;4.10;99.90;;;;;;6048414;23;20267;-67
2023/03/05 05:43:50;;;;;;;17.27;12.15;;;4.10;99.90;;;;;;6053364;23;20199;-66
2023/03/05 05:46:21;;;;;;;18.90;11.98;;;4.10;99.90;;;;;;6058286;23;20692;-66
2023/03/05 05:48:48;;;;;;;19.17;11.75;;;4.10;99.90;;;;;;6050407;23;20203;-66
2023/03/05 05:51:21;;;;;;;19.42;11.48;;;4.00;99.90;;;;;;6054682;23;20275;-66
2023/03/05 05:53:48;;;;;;;19.67;11.57;;;4.00;99.90;;;;;;6060146;23;20299;-66
2023/03/05 05:56:17;;;;;;;17.45;10.57;;;4.00;99.90;;;;;;6057372;23;20288;-67
2023/03/05 05:58:46;;;;;;;16.70;10.88;;;4.00;99.90;;;;;;6053435;23;20276;-67
2023/03/05 06:01:15;;;;;;;17.85;10.38;;;4.00;99.90;;;;;;6045731;23;20227;-67
2023/03/05 06:03:44;;;;;;;17.55;10.43;;;4.00;99.90;;;;;;6057374;23;20196;-66
2023/03/05 06:06:12;;;;;;;17.85;10.85;;;4.00;99.90;;;;;;6046080;23;20295;-66
2023/03/05 06:08:40;;;;;;;18.52;11.18;;;4.00;99.90;;;;;;6053651;23;20276;-66
2023/03/05 06:11:08;;;;;;;21.98;11.70;;;4.00;99.90;;;;;;6052154;23;20189;-66
2023/03/05 06:13:35;;;;;;;19.80;11.13;;;4.00;99.90;;;;;;6044198;23;20253;-66
2023/03/05 06:16:04;;;;;;;21.10;11.57;;;4.00;99.90;;;;;;6054280;23;20197;-67
2023/03/05 06:18:31;;;;;;;18.55;11.32;;;4.00;99.90;;;;;;6058922;23;20228;-66
2023/03/05 06:21:03;;;;;;;19.48;11.77;;;4.00;99.90;;;;;;6048789;23;20544;-66
2023/03/05 06:23:30;;;;;;;18.52;11.43;;;4.00;99.90;;;;;;6059539;23;20213;-66
2023/03/05 06:26:00;;;;;;;16.75;11.50;;;4.00;99.90;;;;;;6058276;23;20285;-66
2023/03/05 06:28:27;;;;;;;21.98;12.20;;;4.00;99.90;;;;;;6051158;23;20193;-66
2023/03/05 06:31:00;;;;;;;18.48;12.48;;;4.00;99.90;;;;;;6041669;23;20220;-66
2023/03/05 06:33:28;;;;;;;20.55;12.38;;;4.00;99.90;;;;;;6043014;23;20272;-67
2023/03/05 06:35:55;;;;;;;21.02;13.23;;;4.00;99.90;;;;;;6040368;23;20209;-67
2023/03/05 06:38:23;;;;;;;20.42;11.75;;;4.10;99.90;;;;;;6045306;23;20732;-67
2023/03/05 06:40:51;;;;;;;17.67;11.10;;;4.10;99.90;;;;;;6055755;23;20192;-67
2023/03/05 06:43:18;;;;;;;19.38;11.23;;;4.10;99.90;;;;;;6058486;23;20572;-67
2023/03/05 06:45:45;;;;;;;20.90;12.55;;;4.10;99.90;;;;;;6051475;23;20276;-66
2023/03/05 06:48:13;;;;;;;22.23;12.20;;;4.10;99.90;;;;;;6057088;23;20464;-66
2023/03/05 06:50:40;;;;;;;19.10;11.77;;;4.10;99.90;;;;;;6047541;23;20283;-66
2023/03/05 06:53:07;;;;;;;17.42;11.52;;;4.10;99.90;;;;;;6050059;23;20221;-66
2023/03/05 06:55:38;;;;;;;18.88;11.80;;;4.10;99.90;;;;;;6056668;23;20196;-66
2023/03/05 06:58:06;;;;;;;19.48;11.70;;;4.20;99.90;;;;;;6057526;23;20572;-66
2023/03/05 07:00:33;;;;;;;22.00;11.77;;;4.20;99.90;;;;;;6060076;23;20633;-65
2023/03/05 07:03:01;;;;;;;20.42;12.35;;;4.20;99.90;;;;;;6052451;23;20674;-66
2023/03/05 07:05:28;;;;;;;21.27;11.73;;;4.20;99.90;;;;;;6036988;23;20232;-66
2023/03/05 07:07:54;;;;;;;19.10;11.18;;;4.20;99.90;;;;;;6054165;23;20192;-67
2023/03/05 07:10:21;;;;;;;16.15;11.25;;;4.20;99.90;;;;;;6043770;23;20207;-67
2023/03/05 07:12:50;;;;;;;21.30;11.98;;;4.30;99.90;;;;;;6049885;23;20291;-66
2023/03/05 07:15:17;;;;;;;18.50;11.05;;;4.30;99.90;;;;;;6038386;23;20220;-66
2023/03/05 07:17:45;;;;;;;16.55;11.50;;;4.30;99.90;;;;;;6048059;23;20675;-65
2023/03/05 07:20:13;;;;;;;17.05;11.07;;;4.30;99.90;;;;;;6047684;23;20268;-66
2023/03/05 07:22:40;;;;;;;17.50;11.45;;;4.30;99.90;;;;;;6040683;23;20216;-67
2023/03/05 07:25:08;;;;;;;17.92;10.85;;;4.40;99.90;;;;;;6056813;23;20201;-66
2023/03/05 07:27:36;;;;;;;18.35;11.80;;;4.40;99.90;;;;;;6059834;23;20201;-67
2023/03/05 07:30:06;;;;;;;16.73;11.27;;;4.40;99.90;;;;;;6059047;23;20216;-67
2023/03/05 07:32:35;;;;;;;16.35;11.45;;;4.40;99.90;;;;;;6057093;23;20219;-68
2023/03/05 07:35:02;;;;;;;17.70;10.15;;;4.50;99.90;;;;;;6048247;23;20300;-65
2023/03/05 07:37:29;;;;;;;17.48;11.43;;;4.50;99.90;;;;;;6049350;23;20212;-67
2023/03/05 07:39:56;;;;;;;15.75;10.60;;;4.50;99.90;;;;;;6048530;23;20223;-66
2023/03/05 07:42:23;;;;;;;18.30;12.05;;;4.50;99.90;;;;;;6051218;23;20200;-67
2023/03/05 07:44:50;;;;;;;17.52;11.82;;;4.60;99.90;;;;;;6048785;23;20254;-67
2023/03/05 07:47:19;;;;;;;18.73;11.13;;;4.60;99.90;;;;;;6060020;23;20219;-66
2023/03/05 07:49:46;;;;;;;17.55;11.23;;;4.70;99.90;;;;;;6061238;23;20633;-65
2023/03/05 07:52:13;;;;;;;20.73;12.70;;;4.70;99.90;;;;;;6059706;23;20204;-67
2023/03/05 07:54:40;;;;;;;17.33;11.50;;;4.80;99.90;;;;;;6051336;23;20221;-66
2023/03/05 07:57:08;;;;;;;18.75;11.50;;;4.80;99.90;;;;;;6056401;23;20248;-67
2023/03/05 07:59:35;;;;;;;19.55;11.48;;;4.80;99.90;;;;;;6050356;23;20264;-66
2023/03/05 08:02:02;;;;;;;17.30;11.57;;;4.80;99.90;;;;;;6041865;23;20217;-67
2023/03/05 08:04:31;;;;;;;20.05;11.55;;;4.90;99.90;;;;;;6053267;23;20197;-68
2023/03/05 08:06:58;;;;;;;17.92;11.48;;;4.90;99.90;;;;;;6059552;23;20529;-67
2023/03/05 08:09:27;;;;;;;17.98;11.30;;;4.90;99.90;;;;;;6060529;23;20275;-67
2023/03/05 08:11:54;;;;;;;16.98;11.43;;;4.90;99.90;;;;;;6049237;23;20213;-66
2023/03/05 08:14:21;;;;;;;20.55;11.50;;;4.90;99.90;;;;;;6053463;23;20225;-66
2023/03/05 08:16:51;;;;;;;18.02;12.30;;;4.90;99.90;;;;;;6052384;23;20188;-66
2023/03/05 08:19:18;;;;;;;17.83;10.88;;;4.90;99.90;;;;;;6051229;23;20193;-66
2023/03/05 08:21:47;;;;;;;17.58;11.15;;;4.90;99.90;;;;;;6047516;23;20209;-67
2023/03/05 08:24:14;;;;;;;16.63;9.98;;;4.90;99.90;;;;;;6046011;23;20279;-67
2023/03/05 08:26:42;;;;;;;18.95;10.93;;;4.90;99.90;;;;;;6056839;23;20549;-68
2023/03/05 08:29:10;;;;;;;14.02;9.40;;;4.90;99.90;;;;;;6051956;23;20184;-69
2023/03/05 08:31:37;;;;;;;15.82;10.25;;;5.10;99.90;;;;;;6056176;23;20209;-80
2023/03/05 08:34:06;;;;;;;16.70;10.95;;;5.40;99.90;;;;;;6059475;23;20243;-66
2023/03/05 08:36:33;;;;;;;18.15;10.52;;;5.50;99.90;;;;;;6060750;23;20185;-66
2023/03/05 08:39:02;;;;;;;18.52;10.40;;;5.50;99.90;;;;;;6057663;23;20185;-66
2023/03/05 08:41:29;;;;;;;18.00;10.95;;;5.50;99.90;;;;;;6058420;23;20209;-66
2023/03/05 08:43:56;;;;;;;21.30;11.80;;;5.50;99.90;;;;;;6047445;23;20215;-65
2023/03/05 08:46:23;;;;;;;18.60;11.50;;;5.40;99.90;;;;;;6058519;23;20613;-66
2023/03/05 08:48:50;;;;;;;20.42;12.38;;;5.40;99.90;;;;;;6052193;23;20191;-66
2023/03/05 08:51:19;;;;;;;17.08;11.93;;;5.40;99.90;;;;;;6058287;23;20212;-73
2023/03/05 08:53:47;;;;;;;18.23;11.63;;;5.40;99.90;;;;;;6059821;23;20259;-67
2023/03/05 08:56:16;;;;;;;19.45;12.68;;;5.40;99.90;;;;;;6057423;23;20270;-67
2023/03/05 08:58:43;;;;;;;18.45;10.63;;;5.40;99.90;;;;;;6057422;23;20878;-68
2023/03/05 09:01:11;;;;;;;17.25;12.13;;;5.40;99.90;;;;;;6054373;23;20277;-73
2023/03/05 09:03:38;;;;;;;19.30;11.32;;;5.40;99.90;;;;;;6051197;23;20336;-65
2023/03/05 09:06:08;;;;;;;20.83;12.95;;;5.40;99.90;;;;;;6033009;23;20260;-65
2023/03/05 09:08:36;;;;;;;16.83;11.05;;;5.40;99.90;;;;;;6034603;23;20190;-65
2023/03/05 09:11:04;;;;;;;18.88;12.50;;;5.40;99.90;;;;;;6039923;23;20629;-65
2023/03/05 09:13:32;;;;;;;17.20;12.00;;;5.50;99.90;;;;;;6049759;23;20703;-66
2023/03/05 09:16:01;;;;;;;20.55;13.05;;;5.50;99.90;;;;;;6049884;23;20270;-66
2023/03/05 09:18:29;;;;;;;19.27;11.20;;;5.60;99.90;;;;;;6056054;23;20633;-65
2023/03/05 09:20:56;;;;;;;20.52;12.82;;;5.70;99.90;;;;;;6053797;23;20186;-65
2023/03/05 09:23:23;;;;;;;20.52;12.90;;;5.70;99.90;;;;;;6033776;23;20800;-65
2023/03/05 09:25:51;;;;;;;14.65;11.95;;;5.80;99.90;;;;;;6034215;23;20284;-65
2023/03/05 09:28:18;;;;;;;17.55;12.98;;;5.80;99.90;;;;;;6042690;23;20199;-64
2023/03/05 09:30:46;;;;;;;16.63;11.57;;;5.80;99.90;;;;;;6046156;23;20276;-64
2023/03/05 09:33:13;;;;;;;18.00;11.80;;;5.70;99.90;;;;;;6049943;23;20215;-65
2023/03/05 09:35:40;;;;;;;20.20;12.65;;;5.70;99.90;;;;;;6055899;23;20307;-65
2023/03/05 09:38:07;;;;;;;20.42;12.23;;;5.60;99.90;;;;;;6059648;23;20279;-66
2023/03/05 09:40:44;;;;;;;19.52;13.40;;;5.60;99.90;;;;;;6038228;23;20554;-66
2023/03/05 09:43:21;;;;;;;21.30;12.90;;;5.70;99.90;;;;;;6058421;23;20292;-65
2023/03/05 09:46:02;;;;;;;16.67;11.10;;;5.70;99.90;;;;;;6061313;23;20271;-65
2023/03/05 09:48:46;;;;;;;20.45;14.00;;;5.70;99.90;;;;;;6049515;23;20251;-65
2023/03/05 09:51:16;;;;;;;19.50;11.70;;;5.70;99.90;;;;;;6050169;23;20192;-64
2023/03/05 09:53:47;;;;;;;16.65;11.75;;;5.60;99.90;;;;;;6061368;23;20589;-65
2023/03/05 09:56:17;;;;;;;18.17;11.02;;;5.60;99.90;;;;;;6050138;23;20582;-65
2023/03/05 09:58:48;;;;;;;17.92;12.00;;;5.60;99.90;;;;;;6051292;23;20540;-65
2023/03/05 10:01:20;;;;;;;18.45;12.63;;;5.60;99.90;;;;;;6060818;23;20292;-65
2023/03/05 10:03:56;;;;;;;20.13;13.43;;;5.60;99.90;;;;;;6061639;23;20228;-65
2023/03/05 10:06:27;;;;;;;16.55;11.57;;;5.60;99.90;;;;;;6050422;23;20205;-66
2023/03/05 10:08:57;;;;;;;18.95;11.68;;;5.60;99.90;;;;;;6050790;23;20213;-65
2023/03/05 10:11:37;;;;;;;18.85;12.82;;;5.60;99.90;;;;;;6061577;23;20700;-65
2023/03/05 10:14:07;;;;;;;18.17;13.75;;;5.60;99.90;;;;;;6051436;23;20196;-65
2023/03/05 10:17:00;;;;;;;20.83;13.05;;;5.60;99.90;;;;;;6049484;23;20542;-66
2023/03/05 10:19:52;;;;;;;18.40;12.60;;;5.60;99.90;;;;;;6061414;23;20272;-66
2023/03/05 10:22:22;;;;;;;17.70;12.40;;;5.60;99.90;;;;;;6056322;23;20284;-65
2023/03/05 10:25:08;;;;;;;21.90;13.10;;;5.60;99.90;;;;;;6048364;23;20193;-64
2023/03/05 10:27:47;;;;;;;21.25;13.40;;;5.70;99.90;;;;;;6038742;23;20195;-65
2023/03/05 10:30:27;;;;;;;17.30;13.25;;;5.70;99.90;;;;;;6061089;23;20195;-66
2023/03/05 10:33:01;;;;;;;17.92;12.20;;;5.70;99.90;;;;;;6060963;23;20240;-65
2023/03/05 10:35:55;;;;;;;18.38;12.85;;;5.80;99.90;;;;;;6052968;23;20223;-66
2023/03/05 10:38:48;;;;;;;22.83;13.35;;;5.90;99.90;;;;;;6045225;23;20665;-65
2023/03/05 10:41:26;;;;;;;19.55;12.90;;;6.00;99.90;;;;;;6033950;23;20322;-65
2023/03/05 10:43:58;;;;;;;20.67;13.00;;;6.00;99.90;;;;;;6054435;23;20193;-65
2023/03/05 10:46:33;;;;;;;18.85;13.77;;;6.00;99.90;;;;;;6048550;23;20275;-65
2023/03/05 10:49:12;;;;;;;23.67;14.43;;;6.00;99.90;;;;;;6049836;23;20196;-65
2023/03/05 10:51:44;;;;;;;21.05;13.82;;;6.00;99.90;;;;;;6039467;23;20232;-65
2023/03/05 10:54:19;;;;;;;22.13;14.98;;;6.00;99.90;;;;;;6033893;23;20194;-65
2023/03/05 10:56:47;;;;;;;19.90;13.52;;;6.00;99.90;;;;;;6035698;23;20293;-65
2023/03/05 10:59:13;;;;;;;18.67;14.00;;;6.00;99.90;;;;;;6042116;23;20195;-65
2023/03/05 11:01:41;;;;;;;20.63;14.63;;;5.90;99.90;;;;;;6059623;23;20216;-64
2023/03/05 11:04:26;;;;;;;18.38;12.82;;;5.90;99.90;;;;;;6061204;23;20672;-66
2023/03/05 11:06:53;;;;;;;17.55;13.30;;;5.90;99.90;;;;;;6060088;23;20223;-65
2023/03/05 11:09:25;;;;;;;18.42;13.57;;;5.90;99.90;;;;;;6039938;23;20221;-66
2023/03/05 11:12:10;;;;;;;23.42;13.88;;;5.90;99.90;;;;;;6044957;23;20206;-66
2023/03/05 11:14:40;;;;;;;15.68;12.38;;;6.00;99.90;;;;;;6060127;23;20292;-65
2023/03/05 11:17:24;;;;;;;19.25;14.00;;;6.00;99.90;;;;;;6039353;23;20193;-65
2023/03/05 11:19:52;;;;;;;21.05;13.73;;;6.00;99.90;;;;;;6049641;23;20730;-65
2023/03/05 11:22:21;;;;;;;18.50;13.52;;;6.10;99.90;;;;;;6057005;23;20229;-65
2023/03/05 11:25:05;;;;;;;16.80;11.70;;;6.10;99.90;;;;;;6058014;23;20268;-65
2023/03/05 11:27:37;;;;;;;17.90;12.00;;;6.10;99.90;;;;;;6060644;23;20189;-65
2023/03/05 11:30:18;;;;;;;14.18;11.27;;;6.10;99.90;;;;;;6060619;23;20208;-65
2023/03/05 11:32:45;;;;;;;21.17;12.27;;;6.10;99.90;;;;;;6061988;23;20209;-64
2023/03/05 11:35:31;;;;;;;18.73;13.57;;;6.10;99.90;;;;;;6060904;23;20623;-66
2023/03/05 11:38:02;;;;;;;14.70;12.73;;;6.20;99.90;;;;;;6048553;23;20710;-65
2023/03/05 11:40:31;;;;;;;18.50;12.18;;;6.10;99.90;;;;;;6047468;23;20213;-64
2023/03/05 11:43:01;;;;;;;16.48;12.57;;;6.20;99.90;;;;;;6059345;23;20208;-64
2023/03/05 11:45:30;;;;;;;17.42;13.07;;;6.20;99.90;;;;;;6050803;23;20183;-65
2023/03/05 11:48:04;;;;;;;18.88;12.95;;;6.40;99.90;;;;;;6052498;23;20272;-66
2023/03/05 11:50:35;;;;;;;16.80;12.27;;;6.50;99.90;;;;;;6049981;23;20582;-66
2023/03/05 11:53:05;;;;;;;17.83;12.57;;;6.50;99.90;;;;;;6039272;23;20296;-66
2023/03/05 11:55:37;;;;;;;17.77;12.90;;;6.50;99.90;;;;;;6044234;23;20254;-66
2023/03/05 11:58:28;;;;;;;17.63;11.82;;;6.50;99.90;;;;;;6047174;23;20876;-66
2023/03/05 12:00:56;;;;;;;14.77;12.45;;;6.40;99.90;;;;;;6052913;23;20214;-65
2023/03/05 12:03:26;;;;;;;17.70;11.82;;;6.50;99.90;;;;;;6060858;23;20185;-65
2023/03/05 12:05:58;;;;;;;16.45;11.18;;;6.50;99.90;;;;;;6043705;23;20218;-65
2023/03/05 12:08:30;;;;;;;17.65;12.00;;;6.50;99.90;;;;;;6054736;23;20190;-65
2023/03/05 12:10:59;;;;;;;20.33;13.20;;;6.60;99.90;;;;;;6050080;23;20206;-65
2023/03/05 12:13:32;;;;;;;17.55;13.10;;;6.70;99.90;;;;;;6061088;23;20200;-65
2023/03/05 12:16:08;;;;;;;19.70;13.35;;;6.80;99.90;;;;;;6034178;23;20233;-65
2023/03/05 12:18:48;;;;;;;16.02;12.43;;;6.70;99.90;;;;;;6055937;23;20190;-65
2023/03/05 12:21:25;;;;;;;15.85;12.32;;;6.60;99.90;;;;;;6033101;23;20209;-65
2023/03/05 12:23:57;;;;;;;19.20;12.52;;;6.60;99.90;;;;;;6048859;23;20255;-65
2023/03/05 12:27:08;;;;;;;18.95;13.13;;;6.60;99.90;;;;;;6052397;23;20196;-65
2023/03/05 12:29:40;;;;;;;16.77;11.57;;;6.70;99.90;;;;;;6061214;23;20189;-65
2023/03/05 12:33:00;;;;;;;19.60;12.63;;;6.70;99.90;;;;;;6057014;23;20242;-66
2023/03/05 12:35:35;;;;;;;15.70;12.20;;;6.50;99.90;;;;;;6040663;23;20682;-65
2023/03/05 12:38:27;;;;;;;17.35;12.35;;;6.30;99.90;;;;;;6057551;23;20246;-65
2023/03/05 12:41:42;;;;;;;16.95;11.88;;;6.20;99.90;;;;;;6059800;23;20213;-65
2023/03/05 12:44:21;;;;;;;15.85;11.85;;;6.30;99.90;;;;;;6039139;23;20256;-65
2023/03/05 12:47:18;;;;;;;15.48;11.68;;;6.30;99.90;;;;;;6061830;23;20185;-66
2023/03/05 12:49:48;;;;;;;14.80;11.05;;;6.40;99.90;;;;;;6061983;23;20280;-65
2023/03/05 12:52:24;;;;;;;15.13;11.82;;;6.40;99.90;;;;;;6061315;23;20213;-65